sensor_id;sensor_type;location;lat;lon;timestamp;P1;durP1;ratioP1;P2;durP2;ratioP2
51654;SDS011;37732;53.106;7.030;2023-06-22T00:00:56;23.33;;;21.05;;
51654;SDS011;37732;53.106;7.030;2023-06-22T00:03:23;20.75;;;18.77;;
51654;SDS011;37732;53.106;7.030;2023-06-22T00:05:50;24.17;;;21.90;;
51654;SDS011;37732;53.106;7.030;2023-06-22T00:08:17;25.27;;;22.63;;
51654;SDS011;37732;53.106;7.030;2023-06-22T00:10:43;19.35;;;17.58;;
51654;SDS011;37732;53.106;7.030;2023-06-22T00:13:10;20.63;;;18.73;;
51654;SDS011;37732;53.106;7.030;2023-06-22T00:15:37;20.25;;;18.27;;
51654;SDS011;37732;53.106;7.030;2023-06-22T00:18:07;20.80;;;18.88;;
51654;SDS011;37732;53.106;7.030;2023-06-22T00:20:33;27.13;;;24.23;;
51654;SDS011;37732;53.106;7.030;2023-06-22T00:23:02;21.00;;;18.90;;
51654;SDS011;37732;53.106;7.030;2023-06-22T00:25:36;21.35;;;19.35;;
51654;SDS011;37732;53.106;7.030;2023-06-22T00:28:05;22.85;;;20.60;;
51654;SDS011;37732;53.106;7.030;2023-06-22T00:30:31;21.80;;;19.60;;
51654;SDS011;37732;53.106;7.030;2023-06-22T00:32:57;30.52;;;27.63;;
51654;SDS011;37732;53.106;7.030;2023-06-22T00:35:24;18.80;;;17.00;;
51654;SDS011;37732;53.106;7.030;2023-06-22T00:37:54;20.33;;;18.42;;
51654;SDS011;37732;53.106;7.030;2023-06-22T00:40:29;19.23;;;17.35;;
51654;SDS011;37732;53.106;7.030;2023-06-22T00:42:56;23.45;;;21.20;;
51654;SDS011;37732;53.106;7.030;2023-06-22T00:45:22;22.42;;;20.17;;
51654;SDS011;37732;53.106;7.030;2023-06-22T00:47:52;21.65;;;19.45;;
51654;SDS011;37732;53.106;7.030;2023-06-22T00:50:20;28.40;;;25.65;;
51654;SDS011;37732;53.106;7.030;2023-06-22T00:52:48;25.40;;;23.05;;
51654;SDS011;37732;53.106;7.030;2023-06-22T00:55:17;23.73;;;21.23;;
51654;SDS011;37732;53.106;7.030;2023-06-22T00:57:46;23.63;;;21.40;;
51654;SDS011;37732;53.106;7.030;2023-06-22T01:02:59;27.10;;;24.63;;
51654;SDS011;37732;53.106;7.030;2023-06-22T01:05:26;21.50;;;19.40;;
51654;SDS011;37732;53.106;7.030;2023-06-22T01:08:29;20.27;;;18.38;;
51654;SDS011;37732;53.106;7.030;2023-06-22T01:14:10;20.40;;;18.52;;
51654;SDS011;37732;53.106;7.030;2023-06-22T01:16:41;21.58;;;19.52;;
51654;SDS011;37732;53.106;7.030;2023-06-22T01:21:49;23.52;;;21.25;;
51654;SDS011;37732;53.106;7.030;2023-06-22T01:24:23;20.25;;;18.45;;
51654;SDS011;37732;53.106;7.030;2023-06-22T01:29:35;22.95;;;20.80;;
51654;SDS011;37732;53.106;7.030;2023-06-22T01:32:03;24.58;;;22.35;;
51654;SDS011;37732;53.106;7.030;2023-06-22T01:34:31;23.50;;;21.25;;
51654;SDS011;37732;53.106;7.030;2023-06-22T01:36:58;22.38;;;20.17;;
51654;SDS011;37732;53.106;7.030;2023-06-22T01:39:25;24.90;;;22.60;;
51654;SDS011;37732;53.106;7.030;2023-06-22T01:41:52;23.45;;;21.17;;
51654;SDS011;37732;53.106;7.030;2023-06-22T01:44:19;34.55;;;31.08;;
51654;SDS011;37732;53.106;7.030;2023-06-22T01:46:46;26.02;;;23.65;;
51654;SDS011;37732;53.106;7.030;2023-06-22T01:49:14;28.05;;;25.27;;
51654;SDS011;37732;53.106;7.030;2023-06-22T01:51:41;30.48;;;27.48;;
51654;SDS011;37732;53.106;7.030;2023-06-22T01:54:06;33.58;;;30.25;;
51654;SDS011;37732;53.106;7.030;2023-06-22T01:56:33;26.15;;;23.65;;
51654;SDS011;37732;53.106;7.030;2023-06-22T02:01:49;23.85;;;21.55;;
51654;SDS011;37732;53.106;7.030;2023-06-22T02:04:51;23.27;;;20.98;;
51654;SDS011;37732;53.106;7.030;2023-06-22T02:07:24;23.92;;;21.67;;
51654;SDS011;37732;53.106;7.030;2023-06-22T02:09:57;26.00;;;23.40;;
51654;SDS011;37732;53.106;7.030;2023-06-22T02:12:25;27.95;;;25.27;;
51654;SDS011;37732;53.106;7.030;2023-06-22T02:14:53;40.30;;;36.30;;
51654;SDS011;37732;53.106;7.030;2023-06-22T02:17:19;27.00;;;24.30;;
51654;SDS011;37732;53.106;7.030;2023-06-22T02:19:45;27.08;;;24.25;;
51654;SDS011;37732;53.106;7.030;2023-06-22T02:22:11;26.23;;;23.52;;
51654;SDS011;37732;53.106;7.030;2023-06-22T02:24:40;25.10;;;22.85;;
51654;SDS011;37732;53.106;7.030;2023-06-22T02:27:05;28.13;;;25.40;;
51654;SDS011;37732;53.106;7.030;2023-06-22T02:29:32;23.77;;;21.52;;
51654;SDS011;37732;53.106;7.030;2023-06-22T02:31:58;25.73;;;23.15;;
51654;SDS011;37732;53.106;7.030;2023-06-22T02:34:23;26.30;;;23.85;;
51654;SDS011;37732;53.106;7.030;2023-06-22T02:36:49;24.10;;;21.65;;
51654;SDS011;37732;53.106;7.030;2023-06-22T02:39:20;27.80;;;24.77;;
51654;SDS011;37732;53.106;7.030;2023-06-22T02:41:48;25.10;;;22.70;;
51654;SDS011;37732;53.106;7.030;2023-06-22T02:44:14;25.77;;;23.45;;
51654;SDS011;37732;53.106;7.030;2023-06-22T02:46:40;24.27;;;21.98;;
51654;SDS011;37732;53.106;7.030;2023-06-22T02:49:06;25.92;;;23.25;;
51654;SDS011;37732;53.106;7.030;2023-06-22T02:51:33;23.75;;;21.45;;
51654;SDS011;37732;53.106;7.030;2023-06-22T02:54:01;24.52;;;22.00;;
51654;SDS011;37732;53.106;7.030;2023-06-22T02:56:28;23.98;;;21.48;;
51654;SDS011;37732;53.106;7.030;2023-06-22T02:58:55;24.48;;;21.92;;
51654;SDS011;37732;53.106;7.030;2023-06-22T03:01:29;21.75;;;19.55;;
51654;SDS011;37732;53.106;7.030;2023-06-22T03:04:05;23.83;;;21.55;;
51654;SDS011;37732;53.106;7.030;2023-06-22T03:06:32;24.42;;;22.02;;
51654;SDS011;37732;53.106;7.030;2023-06-22T03:09:02;23.77;;;21.38;;
51654;SDS011;37732;53.106;7.030;2023-06-22T03:11:30;24.55;;;22.08;;
51654;SDS011;37732;53.106;7.030;2023-06-22T03:13:57;24.65;;;22.33;;
51654;SDS011;37732;53.106;7.030;2023-06-22T03:16:23;25.45;;;23.00;;
51654;SDS011;37732;53.106;7.030;2023-06-22T03:18:48;23.88;;;21.67;;
51654;SDS011;37732;53.106;7.030;2023-06-22T03:21:14;21.65;;;19.45;;
51654;SDS011;37732;53.106;7.030;2023-06-22T03:23:40;20.90;;;18.98;;
51654;SDS011;37732;53.106;7.030;2023-06-22T03:26:08;22.55;;;20.25;;
51654;SDS011;37732;53.106;7.030;2023-06-22T03:28:34;22.33;;;20.23;;
51654;SDS011;37732;53.106;7.030;2023-06-22T03:31:01;22.00;;;19.83;;
51654;SDS011;37732;53.106;7.030;2023-06-22T03:33:26;17.25;;;15.65;;
51654;SDS011;37732;53.106;7.030;2023-06-22T03:35:52;25.73;;;23.23;;
51654;SDS011;37732;53.106;7.030;2023-06-22T03:38:18;17.63;;;15.93;;
51654;SDS011;37732;53.106;7.030;2023-06-22T03:40:44;17.77;;;16.08;;
51654;SDS011;37732;53.106;7.030;2023-06-22T03:43:10;13.88;;;12.57;;
51654;SDS011;37732;53.106;7.030;2023-06-22T03:45:36;16.10;;;14.63;;
51654;SDS011;37732;53.106;7.030;2023-06-22T03:48:02;16.15;;;14.63;;
51654;SDS011;37732;53.106;7.030;2023-06-22T03:50:28;13.93;;;12.50;;
51654;SDS011;37732;53.106;7.030;2023-06-22T03:52:55;16.48;;;14.90;;
51654;SDS011;37732;53.106;7.030;2023-06-22T03:55:20;15.05;;;13.55;;
51654;SDS011;37732;53.106;7.030;2023-06-22T03:57:46;16.35;;;14.77;;
51654;SDS011;37732;53.106;7.030;2023-06-22T04:00:12;14.60;;;13.15;;
51654;SDS011;37732;53.106;7.030;2023-06-22T04:02:38;19.65;;;16.17;;
51654;SDS011;37732;53.106;7.030;2023-06-22T04:05:04;18.42;;;16.63;;
51654;SDS011;37732;53.106;7.030;2023-06-22T04:07:30;19.52;;;17.52;;
51654;SDS011;37732;53.106;7.030;2023-06-22T04:09:56;19.75;;;17.70;;
51654;SDS011;37732;53.106;7.030;2023-06-22T04:12:21;19.90;;;17.88;;
51654;SDS011;37732;53.106;7.030;2023-06-22T04:14:47;20.10;;;17.98;;
51654;SDS011;37732;53.106;7.030;2023-06-22T04:17:13;18.65;;;16.77;;
51654;SDS011;37732;53.106;7.030;2023-06-22T04:19:39;29.02;;;24.63;;
51654;SDS011;37732;53.106;7.030;2023-06-22T04:22:05;25.00;;;22.45;;
51654;SDS011;37732;53.106;7.030;2023-06-22T04:24:36;25.90;;;23.35;;
51654;SDS011;37732;53.106;7.030;2023-06-22T04:27:02;29.65;;;26.77;;
51654;SDS011;37732;53.106;7.030;2023-06-22T04:29:31;40.53;;;36.50;;
51654;SDS011;37732;53.106;7.030;2023-06-22T04:31:57;32.38;;;29.10;;
51654;SDS011;37732;53.106;7.030;2023-06-22T04:34:28;34.30;;;30.70;;
51654;SDS011;37732;53.106;7.030;2023-06-22T04:36:54;33.35;;;29.88;;
51654;SDS011;37732;53.106;7.030;2023-06-22T04:39:20;28.85;;;26.10;;
51654;SDS011;37732;53.106;7.030;2023-06-22T04:41:46;43.53;;;38.85;;
51654;SDS011;37732;53.106;7.030;2023-06-22T04:44:16;41.60;;;37.47;;
51654;SDS011;37732;53.106;7.030;2023-06-22T04:46:49;46.78;;;41.78;;
51654;SDS011;37732;53.106;7.030;2023-06-22T04:49:20;43.65;;;39.22;;
51654;SDS011;37732;53.106;7.030;2023-06-22T04:51:47;50.20;;;44.85;;
51654;SDS011;37732;53.106;7.030;2023-06-22T04:54:13;40.88;;;36.80;;
51654;SDS011;37732;53.106;7.030;2023-06-22T04:56:39;42.90;;;38.60;;
51654;SDS011;37732;53.106;7.030;2023-06-22T04:59:05;47.65;;;42.83;;
51654;SDS011;37732;53.106;7.030;2023-06-22T05:01:31;45.28;;;40.92;;
51654;SDS011;37732;53.106;7.030;2023-06-22T05:03:57;43.35;;;39.15;;
51654;SDS011;37732;53.106;7.030;2023-06-22T05:06:26;44.42;;;40.20;;
51654;SDS011;37732;53.106;7.030;2023-06-22T05:08:55;36.95;;;33.58;;
51654;SDS011;37732;53.106;7.030;2023-06-22T05:11:23;34.42;;;31.02;;
51654;SDS011;37732;53.106;7.030;2023-06-22T05:13:49;37.28;;;33.65;;
51654;SDS011;37732;53.106;7.030;2023-06-22T05:16:15;39.15;;;35.22;;
51654;SDS011;37732;53.106;7.030;2023-06-22T05:18:41;36.30;;;32.83;;
51654;SDS011;37732;53.106;7.030;2023-06-22T05:21:08;39.85;;;36.10;;
51654;SDS011;37732;53.106;7.030;2023-06-22T05:23:34;35.00;;;31.67;;
51654;SDS011;37732;53.106;7.030;2023-06-22T05:25:59;34.83;;;31.55;;
51654;SDS011;37732;53.106;7.030;2023-06-22T05:28:25;37.72;;;33.22;;
51654;SDS011;37732;53.106;7.030;2023-06-22T05:30:51;33.83;;;30.50;;
51654;SDS011;37732;53.106;7.030;2023-06-22T05:33:17;36.08;;;32.47;;
51654;SDS011;37732;53.106;7.030;2023-06-22T05:35:42;34.88;;;31.00;;
51654;SDS011;37732;53.106;7.030;2023-06-22T05:38:08;33.67;;;30.48;;
51654;SDS011;37732;53.106;7.030;2023-06-22T05:40:34;31.52;;;28.48;;
51654;SDS011;37732;53.106;7.030;2023-06-22T05:42:59;34.80;;;31.23;;
51654;SDS011;37732;53.106;7.030;2023-06-22T05:45:26;33.15;;;29.98;;
51654;SDS011;37732;53.106;7.030;2023-06-22T05:47:52;31.42;;;28.60;;
51654;SDS011;37732;53.106;7.030;2023-06-22T05:50:18;32.72;;;29.55;;
51654;SDS011;37732;53.106;7.030;2023-06-22T05:52:44;32.30;;;29.25;;
51654;SDS011;37732;53.106;7.030;2023-06-22T05:55:09;30.23;;;27.33;;
51654;SDS011;37732;53.106;7.030;2023-06-22T05:57:35;30.67;;;27.98;;
51654;SDS011;37732;53.106;7.030;2023-06-22T06:00:01;29.35;;;26.65;;
51654;SDS011;37732;53.106;7.030;2023-06-22T06:02:28;27.23;;;24.77;;
51654;SDS011;37732;53.106;7.030;2023-06-22T06:04:54;30.00;;;27.10;;
51654;SDS011;37732;53.106;7.030;2023-06-22T06:07:20;26.08;;;23.67;;
51654;SDS011;37732;53.106;7.030;2023-06-22T06:09:46;26.95;;;24.45;;
51654;SDS011;37732;53.106;7.030;2023-06-22T06:12:13;26.20;;;23.85;;
51654;SDS011;37732;53.106;7.030;2023-06-22T06:14:38;24.63;;;22.33;;
51654;SDS011;37732;53.106;7.030;2023-06-22T06:17:04;25.50;;;23.15;;
51654;SDS011;37732;53.106;7.030;2023-06-22T06:19:30;23.58;;;21.17;;
51654;SDS011;37732;53.106;7.030;2023-06-22T06:21:55;25.00;;;22.63;;
51654;SDS011;37732;53.106;7.030;2023-06-22T06:24:21;23.52;;;21.13;;
51654;SDS011;37732;53.106;7.030;2023-06-22T06:26:47;24.42;;;22.05;;
51654;SDS011;37732;53.106;7.030;2023-06-22T06:29:13;23.35;;;21.08;;
51654;SDS011;37732;53.106;7.030;2023-06-22T06:31:41;21.02;;;19.10;;
51654;SDS011;37732;53.106;7.030;2023-06-22T06:34:07;23.27;;;21.08;;
51654;SDS011;37732;53.106;7.030;2023-06-22T06:36:32;21.15;;;19.15;;
51654;SDS011;37732;53.106;7.030;2023-06-22T06:38:58;21.10;;;19.10;;
51654;SDS011;37732;53.106;7.030;2023-06-22T06:41:24;22.92;;;20.90;;
51654;SDS011;37732;53.106;7.030;2023-06-22T06:43:50;20.05;;;18.20;;
51654;SDS011;37732;53.106;7.030;2023-06-22T06:46:15;21.08;;;19.17;;
51654;SDS011;37732;53.106;7.030;2023-06-22T06:48:41;20.58;;;18.67;;
51654;SDS011;37732;53.106;7.030;2023-06-22T06:51:07;21.85;;;19.75;;
51654;SDS011;37732;53.106;7.030;2023-06-22T06:53:37;19.20;;;17.38;;
51654;SDS011;37732;53.106;7.030;2023-06-22T06:56:03;20.02;;;18.08;;
51654;SDS011;37732;53.106;7.030;2023-06-22T06:58:30;17.90;;;16.00;;
51654;SDS011;37732;53.106;7.030;2023-06-22T07:00:56;17.73;;;16.08;;
51654;SDS011;37732;53.106;7.030;2023-06-22T07:03:22;17.52;;;15.85;;
51654;SDS011;37732;53.106;7.030;2023-06-22T07:05:48;18.90;;;17.05;;
51654;SDS011;37732;53.106;7.030;2023-06-22T07:08:13;18.27;;;16.58;;
51654;SDS011;37732;53.106;7.030;2023-06-22T07:10:39;17.30;;;15.65;;
51654;SDS011;37732;53.106;7.030;2023-06-22T07:13:05;16.98;;;15.32;;
51654;SDS011;37732;53.106;7.030;2023-06-22T07:15:30;16.67;;;14.88;;
51654;SDS011;37732;53.106;7.030;2023-06-22T07:17:56;14.85;;;13.10;;
51654;SDS011;37732;53.106;7.030;2023-06-22T07:20:21;16.55;;;14.95;;
51654;SDS011;37732;53.106;7.030;2023-06-22T07:22:47;15.50;;;14.07;;
51654;SDS011;37732;53.106;7.030;2023-06-22T07:25:13;14.00;;;12.60;;
51654;SDS011;37732;53.106;7.030;2023-06-22T07:27:42;15.80;;;14.20;;
51654;SDS011;37732;53.106;7.030;2023-06-22T07:30:13;14.63;;;13.23;;
51654;SDS011;37732;53.106;7.030;2023-06-22T07:32:39;15.07;;;13.55;;
51654;SDS011;37732;53.106;7.030;2023-06-22T07:35:05;14.07;;;12.60;;
51654;SDS011;37732;53.106;7.030;2023-06-22T07:37:31;13.48;;;12.18;;
51654;SDS011;37732;53.106;7.030;2023-06-22T07:39:59;15.77;;;14.25;;
51654;SDS011;37732;53.106;7.030;2023-06-22T07:42:25;13.73;;;12.32;;
51654;SDS011;37732;53.106;7.030;2023-06-22T07:44:51;12.63;;;11.38;;
51654;SDS011;37732;53.106;7.030;2023-06-22T07:47:17;15.45;;;13.77;;
51654;SDS011;37732;53.106;7.030;2023-06-22T07:49:44;14.85;;;13.35;;
51654;SDS011;37732;53.106;7.030;2023-06-22T07:52:10;13.68;;;12.35;;
51654;SDS011;37732;53.106;7.030;2023-06-22T07:54:36;13.13;;;11.88;;
51654;SDS011;37732;53.106;7.030;2023-06-22T07:57:02;15.68;;;14.18;;
51654;SDS011;37732;53.106;7.030;2023-06-22T07:59:28;12.80;;;11.50;;
51654;SDS011;37732;53.106;7.030;2023-06-22T08:01:54;11.98;;;10.88;;
51654;SDS011;37732;53.106;7.030;2023-06-22T08:04:20;11.60;;;10.40;;
51654;SDS011;37732;53.106;7.030;2023-06-22T08:06:46;11.82;;;10.73;;
51654;SDS011;37732;53.106;7.030;2023-06-22T08:09:12;12.82;;;9.65;;
51654;SDS011;37732;53.106;7.030;2023-06-22T08:11:37;11.98;;;10.77;;
51654;SDS011;37732;53.106;7.030;2023-06-22T08:14:03;12.77;;;10.88;;
51654;SDS011;37732;53.106;7.030;2023-06-22T08:16:29;12.25;;;10.32;;
51654;SDS011;37732;53.106;7.030;2023-06-22T08:18:54;9.90;;;8.82;;
51654;SDS011;37732;53.106;7.030;2023-06-22T08:21:21;12.50;;;11.00;;
51654;SDS011;37732;53.106;7.030;2023-06-22T08:23:47;12.05;;;10.90;;
51654;SDS011;37732;53.106;7.030;2023-06-22T08:26:14;11.23;;;10.10;;
51654;SDS011;37732;53.106;7.030;2023-06-22T08:28:40;10.75;;;9.63;;
51654;SDS011;37732;53.106;7.030;2023-06-22T08:31:06;10.43;;;7.90;;
51654;SDS011;37732;53.106;7.030;2023-06-22T08:33:32;8.82;;;7.78;;
51654;SDS011;37732;53.106;7.030;2023-06-22T08:35:58;10.95;;;8.60;;
51654;SDS011;37732;53.106;7.030;2023-06-22T08:38:23;12.82;;;9.27;;
51654;SDS011;37732;53.106;7.030;2023-06-22T08:40:49;9.88;;;8.88;;
51654;SDS011;37732;53.106;7.030;2023-06-22T08:43:15;9.40;;;8.40;;
51654;SDS011;37732;53.106;7.030;2023-06-22T08:45:41;9.63;;;8.00;;
51654;SDS011;37732;53.106;7.030;2023-06-22T08:48:06;11.48;;;9.38;;
51654;SDS011;37732;53.106;7.030;2023-06-22T08:50:32;13.68;;;10.60;;
51654;SDS011;37732;53.106;7.030;2023-06-22T08:52:58;10.73;;;9.63;;
51654;SDS011;37732;53.106;7.030;2023-06-22T08:55:23;11.55;;;10.27;;
51654;SDS011;37732;53.106;7.030;2023-06-22T08:57:49;11.68;;;10.18;;
51654;SDS011;37732;53.106;7.030;2023-06-22T09:00:16;9.70;;;8.35;;
51654;SDS011;37732;53.106;7.030;2023-06-22T09:02:44;10.85;;;9.15;;
51654;SDS011;37732;53.106;7.030;2023-06-22T09:05:11;10.90;;;9.07;;
51654;SDS011;37732;53.106;7.030;2023-06-22T09:07:36;11.73;;;9.30;;
51654;SDS011;37732;53.106;7.030;2023-06-22T09:10:02;10.65;;;9.38;;
51654;SDS011;37732;53.106;7.030;2023-06-22T09:12:31;12.40;;;8.90;;
51654;SDS011;37732;53.106;7.030;2023-06-22T09:14:58;8.73;;;7.82;;
51654;SDS011;37732;53.106;7.030;2023-06-22T09:17:28;10.27;;;8.57;;
51654;SDS011;37732;53.106;7.030;2023-06-22T09:19:54;8.90;;;7.80;;
51654;SDS011;37732;53.106;7.030;2023-06-22T09:22:20;9.40;;;7.55;;
51654;SDS011;37732;53.106;7.030;2023-06-22T09:24:45;9.57;;;7.43;;
51654;SDS011;37732;53.106;7.030;2023-06-22T09:27:11;9.73;;;8.73;;
51654;SDS011;37732;53.106;7.030;2023-06-22T09:29:37;10.43;;;8.52;;
51654;SDS011;37732;53.106;7.030;2023-06-22T09:32:02;10.00;;;8.35;;
51654;SDS011;37732;53.106;7.030;2023-06-22T09:34:28;9.27;;;7.22;;
51654;SDS011;37732;53.106;7.030;2023-06-22T09:36:56;11.73;;;8.25;;
51654;SDS011;37732;53.106;7.030;2023-06-22T09:39:22;9.00;;;7.88;;
51654;SDS011;37732;53.106;7.030;2023-06-22T09:41:48;9.88;;;8.25;;
51654;SDS011;37732;53.106;7.030;2023-06-22T09:44:14;10.23;;;8.50;;
51654;SDS011;37732;53.106;7.030;2023-06-22T09:46:40;10.88;;;9.80;;
51654;SDS011;37732;53.106;7.030;2023-06-22T09:49:05;10.25;;;7.85;;
51654;SDS011;37732;53.106;7.030;2023-06-22T09:51:31;8.15;;;7.35;;
51654;SDS011;37732;53.106;7.030;2023-06-22T09:53:57;11.65;;;8.45;;
51654;SDS011;37732;53.106;7.030;2023-06-22T09:56:23;9.00;;;7.65;;
51654;SDS011;37732;53.106;7.030;2023-06-22T09:58:49;9.68;;;8.68;;
51654;SDS011;37732;53.106;7.030;2023-06-22T10:01:17;11.10;;;8.65;;
51654;SDS011;37732;53.106;7.030;2023-06-22T10:03:43;8.55;;;7.07;;
51654;SDS011;37732;53.106;7.030;2023-06-22T10:06:09;9.32;;;7.97;;
51654;SDS011;37732;53.106;7.030;2023-06-22T10:08:35;9.27;;;8.23;;
51654;SDS011;37732;53.106;7.030;2023-06-22T10:11:01;10.75;;;8.77;;
51654;SDS011;37732;53.106;7.030;2023-06-22T10:13:28;9.02;;;8.13;;
51654;SDS011;37732;53.106;7.030;2023-06-22T10:15:53;8.63;;;6.72;;
51654;SDS011;37732;53.106;7.030;2023-06-22T10:18:19;10.52;;;8.25;;
51654;SDS011;37732;53.106;7.030;2023-06-22T10:20:47;8.77;;;7.80;;
51654;SDS011;37732;53.106;7.030;2023-06-22T10:23:15;11.48;;;8.32;;
51654;SDS011;37732;53.106;7.030;2023-06-22T10:25:41;9.38;;;7.35;;
51654;SDS011;37732;53.106;7.030;2023-06-22T10:28:06;9.73;;;7.85;;
51654;SDS011;37732;53.106;7.030;2023-06-22T10:30:32;10.23;;;8.10;;
51654;SDS011;37732;53.106;7.030;2023-06-22T10:32:58;7.95;;;6.47;;
51654;SDS011;37732;53.106;7.030;2023-06-22T10:35:23;7.63;;;6.45;;
51654;SDS011;37732;53.106;7.030;2023-06-22T10:37:49;9.40;;;7.82;;
51654;SDS011;37732;53.106;7.030;2023-06-22T10:40:16;8.82;;;7.32;;
51654;SDS011;37732;53.106;7.030;2023-06-22T10:42:42;9.13;;;7.85;;
51654;SDS011;37732;53.106;7.030;2023-06-22T10:45:08;8.70;;;7.43;;
51654;SDS011;37732;53.106;7.030;2023-06-22T10:47:34;8.95;;;7.82;;
51654;SDS011;37732;53.106;7.030;2023-06-22T10:50:01;8.80;;;6.75;;
51654;SDS011;37732;53.106;7.030;2023-06-22T10:52:26;8.10;;;7.22;;
51654;SDS011;37732;53.106;7.030;2023-06-22T10:54:52;8.27;;;7.40;;
51654;SDS011;37732;53.106;7.030;2023-06-22T10:57:18;11.75;;;8.23;;
51654;SDS011;37732;53.106;7.030;2023-06-22T10:59:44;8.90;;;7.93;;
51654;SDS011;37732;53.106;7.030;2023-06-22T11:02:10;8.80;;;7.15;;
51654;SDS011;37732;53.106;7.030;2023-06-22T11:04:35;10.27;;;7.28;;
51654;SDS011;37732;53.106;7.030;2023-06-22T11:07:01;9.38;;;8.48;;
51654;SDS011;37732;53.106;7.030;2023-06-22T11:09:27;9.27;;;7.68;;
51654;SDS011;37732;53.106;7.030;2023-06-22T11:11:52;9.43;;;8.32;;
51654;SDS011;37732;53.106;7.030;2023-06-22T11:14:19;8.77;;;7.72;;
51654;SDS011;37732;53.106;7.030;2023-06-22T11:16:45;10.02;;;8.93;;
51654;SDS011;37732;53.106;7.030;2023-06-22T11:19:11;10.60;;;9.55;;
51654;SDS011;37732;53.106;7.030;2023-06-22T11:21:38;12.52;;;9.63;;
51654;SDS011;37732;53.106;7.030;2023-06-22T11:24:04;11.10;;;8.73;;
51654;SDS011;37732;53.106;7.030;2023-06-22T11:26:30;9.93;;;8.52;;
51654;SDS011;37732;53.106;7.030;2023-06-22T11:28:56;9.65;;;7.65;;
51654;SDS011;37732;53.106;7.030;2023-06-22T11:31:23;10.10;;;7.85;;
51654;SDS011;37732;53.106;7.030;2023-06-22T11:33:49;9.27;;;8.38;;
51654;SDS011;37732;53.106;7.030;2023-06-22T11:36:15;7.90;;;7.10;;
51654;SDS011;37732;53.106;7.030;2023-06-22T11:38:41;9.18;;;7.20;;
51654;SDS011;37732;53.106;7.030;2023-06-22T11:41:07;10.73;;;8.93;;
51654;SDS011;37732;53.106;7.030;2023-06-22T11:43:34;10.00;;;8.82;;
51654;SDS011;37732;53.106;7.030;2023-06-22T11:46:01;9.02;;;8.13;;
51654;SDS011;37732;53.106;7.030;2023-06-22T11:48:28;8.88;;;7.55;;
51654;SDS011;37732;53.106;7.030;2023-06-22T11:50:54;7.95;;;7.15;;
51654;SDS011;37732;53.106;7.030;2023-06-22T11:53:23;8.43;;;7.45;;
51654;SDS011;37732;53.106;7.030;2023-06-22T11:55:50;8.63;;;7.53;;
51654;SDS011;37732;53.106;7.030;2023-06-22T11:58:16;9.40;;;6.97;;
51654;SDS011;37732;53.106;7.030;2023-06-22T12:00:42;9.05;;;7.68;;
51654;SDS011;37732;53.106;7.030;2023-06-22T12:03:07;8.85;;;7.95;;
51654;SDS011;37732;53.106;7.030;2023-06-22T12:05:34;10.43;;;8.07;;
51654;SDS011;37732;53.106;7.030;2023-06-22T12:08:00;9.20;;;8.00;;
51654;SDS011;37732;53.106;7.030;2023-06-22T12:10:26;11.05;;;7.05;;
51654;SDS011;37732;53.106;7.030;2023-06-22T12:12:55;8.32;;;6.78;;
51654;SDS011;37732;53.106;7.030;2023-06-22T12:15:22;8.50;;;6.00;;
51654;SDS011;37732;53.106;7.030;2023-06-22T12:17:48;8.23;;;6.80;;
51654;SDS011;37732;53.106;7.030;2023-06-22T12:20:14;7.68;;;6.75;;
51654;SDS011;37732;53.106;7.030;2023-06-22T12:22:40;8.35;;;7.40;;
51654;SDS011;37732;53.106;7.030;2023-06-22T12:25:07;8.32;;;6.95;;
51654;SDS011;37732;53.106;7.030;2023-06-22T12:27:34;8.23;;;6.68;;
51654;SDS011;37732;53.106;7.030;2023-06-22T12:30:03;8.75;;;7.60;;
51654;SDS011;37732;53.106;7.030;2023-06-22T12:32:30;7.85;;;6.55;;
51654;SDS011;37732;53.106;7.030;2023-06-22T12:34:56;8.82;;;6.75;;
51654;SDS011;37732;53.106;7.030;2023-06-22T12:37:22;7.65;;;6.40;;
51654;SDS011;37732;53.106;7.030;2023-06-22T12:39:48;7.55;;;6.75;;
51654;SDS011;37732;53.106;7.030;2023-06-22T12:42:14;7.85;;;7.05;;
51654;SDS011;37732;53.106;7.030;2023-06-22T12:44:41;7.78;;;6.25;;
51654;SDS011;37732;53.106;7.030;2023-06-22T12:47:07;10.25;;;7.43;;
51654;SDS011;37732;53.106;7.030;2023-06-22T12:49:36;10.43;;;8.20;;
51654;SDS011;37732;53.106;7.030;2023-06-22T12:52:02;8.43;;;6.93;;
51654;SDS011;37732;53.106;7.030;2023-06-22T12:54:28;7.70;;;5.70;;
51654;SDS011;37732;53.106;7.030;2023-06-22T12:56:54;9.75;;;6.85;;
51654;SDS011;37732;53.106;7.030;2023-06-22T12:59:21;12.23;;;7.75;;
51654;SDS011;37732;53.106;7.030;2023-06-22T13:01:46;11.00;;;6.50;;
51654;SDS011;37732;53.106;7.030;2023-06-22T13:04:12;7.88;;;7.07;;
51654;SDS011;37732;53.106;7.030;2023-06-22T13:06:43;8.05;;;7.07;;
51654;SDS011;37732;53.106;7.030;2023-06-22T13:09:14;9.93;;;7.35;;
51654;SDS011;37732;53.106;7.030;2023-06-22T13:11:41;9.40;;;6.38;;
51654;SDS011;37732;53.106;7.030;2023-06-22T13:14:07;8.43;;;7.20;;
51654;SDS011;37732;53.106;7.030;2023-06-22T13:16:33;7.90;;;6.55;;
51654;SDS011;37732;53.106;7.030;2023-06-22T13:18:59;8.15;;;6.00;;
51654;SDS011;37732;53.106;7.030;2023-06-22T13:21:24;7.65;;;6.80;;
51654;SDS011;37732;53.106;7.030;2023-06-22T13:23:50;8.88;;;7.13;;
51654;SDS011;37732;53.106;7.030;2023-06-22T13:26:16;8.73;;;6.15;;
51654;SDS011;37732;53.106;7.030;2023-06-22T13:28:42;8.55;;;6.60;;
51654;SDS011;37732;53.106;7.030;2023-06-22T13:31:07;9.13;;;6.47;;
51654;SDS011;37732;53.106;7.030;2023-06-22T13:33:33;9.40;;;6.22;;
51654;SDS011;37732;53.106;7.030;2023-06-22T13:35:59;7.75;;;6.25;;
51654;SDS011;37732;53.106;7.030;2023-06-22T13:38:25;6.68;;;5.55;;
51654;SDS011;37732;53.106;7.030;2023-06-22T13:40:50;6.53;;;5.20;;
51654;SDS011;37732;53.106;7.030;2023-06-22T13:43:16;7.32;;;5.97;;
51654;SDS011;37732;53.106;7.030;2023-06-22T13:45:42;5.78;;;4.78;;
51654;SDS011;37732;53.106;7.030;2023-06-22T13:48:08;9.00;;;5.65;;
51654;SDS011;37732;53.106;7.030;2023-06-22T13:50:34;7.70;;;6.25;;
51654;SDS011;37732;53.106;7.030;2023-06-22T13:53:00;6.15;;;5.07;;
51654;SDS011;37732;53.106;7.030;2023-06-22T13:55:25;7.60;;;6.15;;
51654;SDS011;37732;53.106;7.030;2023-06-22T13:57:51;10.18;;;6.47;;
51654;SDS011;37732;53.106;7.030;2023-06-22T14:00:18;8.23;;;6.93;;
51654;SDS011;37732;53.106;7.030;2023-06-22T14:02:44;8.43;;;7.35;;
51654;SDS011;37732;53.106;7.030;2023-06-22T14:05:09;9.55;;;7.53;;
51654;SDS011;37732;53.106;7.030;2023-06-22T14:07:36;8.25;;;6.30;;
51654;SDS011;37732;53.106;7.030;2023-06-22T14:10:02;9.35;;;7.18;;
51654;SDS011;37732;53.106;7.030;2023-06-22T14:12:29;8.52;;;6.85;;
51654;SDS011;37732;53.106;7.030;2023-06-22T14:14:55;8.75;;;7.13;;
51654;SDS011;37732;53.106;7.030;2023-06-22T14:17:20;10.57;;;6.80;;
51654;SDS011;37732;53.106;7.030;2023-06-22T14:19:50;9.07;;;5.85;;
51654;SDS011;37732;53.106;7.030;2023-06-22T14:22:20;8.82;;;6.75;;
51654;SDS011;37732;53.106;7.030;2023-06-22T14:24:47;7.85;;;6.32;;
51654;SDS011;37732;53.106;7.030;2023-06-22T14:27:13;7.18;;;5.63;;
51654;SDS011;37732;53.106;7.030;2023-06-22T14:29:38;7.13;;;5.22;;
51654;SDS011;37732;53.106;7.030;2023-06-22T14:32:04;8.13;;;5.57;;
51654;SDS011;37732;53.106;7.030;2023-06-22T14:34:32;7.65;;;4.80;;
51654;SDS011;37732;53.106;7.030;2023-06-22T14:36:58;10.68;;;5.75;;
51654;SDS011;37732;53.106;7.030;2023-06-22T14:39:24;9.52;;;5.93;;
51654;SDS011;37732;53.106;7.030;2023-06-22T14:41:50;8.57;;;5.78;;